createdAt,value
2019-05-21T00:00:53.393Z,13.20
2019-05-21T00:03:20.655Z,13.17
2019-05-21T00:05:47.840Z,13.10
2019-05-21T00:08:15.073Z,18.27
2019-05-21T00:10:42.262Z,13.47
2019-05-21T00:13:09.462Z,17.27
2019-05-21T00:15:36.654Z,16.13
2019-05-21T00:18:04.197Z,14.27
2019-05-21T00:20:31.455Z,15.97
2019-05-21T00:22:59.285Z,18.47
2019-05-21T00:25:26.464Z,16.43
2019-05-21T00:27:56.545Z,14.67
2019-05-21T00:30:41.883Z,15.20
2019-05-21T00:33:26.990Z,14.87
2019-05-21T00:36:12.202Z,15.17
2019-05-21T00:38:57.334Z,15.13
2019-05-21T00:41:42.520Z,15.13
2019-05-21T00:44:09.712Z,13.33
2019-05-21T00:46:36.942Z,14.23
2019-05-21T00:49:04.116Z,17.17
2019-05-21T00:51:31.284Z,13.37
2019-05-21T00:53:58.553Z,15.70
2019-05-21T00:56:25.846Z,13.67
2019-05-21T00:58:53.045Z,17.13
2019-05-21T01:01:20.243Z,15.07
2019-05-21T01:03:47.411Z,13.20
2019-05-21T01:06:14.618Z,11.67
2019-05-21T01:08:41.802Z,12.87
2019-05-21T01:11:08.999Z,12.70
2019-05-21T01:13:36.179Z,12.37
2019-05-21T01:16:03.373Z,12.00
2019-05-21T01:18:30.623Z,12.73
2019-05-21T01:20:57.802Z,15.87
2019-05-21T01:23:24.990Z,13.40
2019-05-21T01:25:52.167Z,14.77
2019-05-21T01:28:19.365Z,12.67
2019-05-21T01:30:46.542Z,13.43
2019-05-21T01:33:13.751Z,12.60
2019-05-21T01:35:40.945Z,15.67
2019-05-21T01:38:08.129Z,11.30
2019-05-21T01:40:35.326Z,14.00
2019-05-21T01:43:03.474Z,12.77
2019-05-21T01:45:30.865Z,12.13
2019-05-21T01:47:58.079Z,16.20
2019-05-21T01:50:25.314Z,12.13
2019-05-21T01:52:52.503Z,15.70
2019-05-21T01:55:19.702Z,12.60
2019-05-21T01:57:46.884Z,12.20
2019-05-21T02:00:14.095Z,12.67
2019-05-21T02:02:41.277Z,11.63
2019-05-21T02:05:08.556Z,13.77
2019-05-21T02:07:36.702Z,13.73
2019-05-21T02:10:05.511Z,12.70
2019-05-21T02:12:32.713Z,13.07
2019-05-21T02:14:59.886Z,12.43
2019-05-21T02:17:27.066Z,12.30
2019-05-21T02:19:54.249Z,12.37
2019-05-21T02:22:21.449Z,12.53
2019-05-21T02:24:48.623Z,11.67
2019-05-21T02:27:15.826Z,13.77
2019-05-21T02:29:43.002Z,15.90
2019-05-21T02:32:10.203Z,14.23
2019-05-21T02:34:37.442Z,12.93
2019-05-21T02:37:06.386Z,15.00
2019-05-21T02:39:33.534Z,13.10
2019-05-21T02:42:00.726Z,14.57
2019-05-21T02:44:27.954Z,15.73
2019-05-21T02:46:55.203Z,17.30
2019-05-21T02:49:22.390Z,14.60
2019-05-21T02:51:49.600Z,14.03
2019-05-21T02:54:16.850Z,13.90
2019-05-21T02:56:44.039Z,16.80
2019-05-21T02:59:11.703Z,14.27
2019-05-21T03:01:40.524Z,13.17
2019-05-21T03:04:07.727Z,13.23
2019-05-21T03:06:34.967Z,12.17
2019-05-21T03:09:02.150Z,13.87
2019-05-21T03:11:29.331Z,13.43
2019-05-21T03:13:56.528Z,13.63
2019-05-21T03:16:23.781Z,15.03
2019-05-21T03:18:50.950Z,12.80
2019-05-21T03:21:18.178Z,13.87
2019-05-21T03:23:45.436Z,18.10
2019-05-21T03:26:12.633Z,19.00
2019-05-21T03:28:39.833Z,14.60
2019-05-21T03:31:07.000Z,13.67
2019-05-21T03:33:34.203Z,14.27
2019-05-21T03:36:01.443Z,12.90
2019-05-21T03:38:28.638Z,15.33
2019-05-21T03:40:55.877Z,14.00
2019-05-21T03:43:23.082Z,13.47
2019-05-21T03:45:50.331Z,13.07
2019-05-21T03:48:17.535Z,15.57
2019-05-21T03:50:44.708Z,15.03
2019-05-21T03:53:11.897Z,13.93
2019-05-21T03:55:39.081Z,20.83
2019-05-21T03:58:06.247Z,15.07
2019-05-21T04:00:33.434Z,13.17
2019-05-21T04:03:00.621Z,14.83
2019-05-21T04:05:27.868Z,19.63
2019-05-21T04:07:55.043Z,16.43
2019-05-21T04:10:22.233Z,15.87
2019-05-21T04:13:07.849Z,15.00
2019-05-21T04:15:38.323Z,15.03
2019-05-21T04:18:10.045Z,13.77
2019-05-21T04:20:37.236Z,18.63
2019-05-21T04:23:04.425Z,15.90
2019-05-21T04:25:31.626Z,15.90
2019-05-21T04:27:58.811Z,14.37
2019-05-21T04:30:26.006Z,18.00
2019-05-21T04:32:53.187Z,15.60
2019-05-21T04:35:20.462Z,14.47
2019-05-21T04:37:47.647Z,15.83
2019-05-21T04:40:14.845Z,18.03
2019-05-21T04:42:42.028Z,14.63
2019-05-21T04:45:10.275Z,19.77
2019-05-21T04:47:37.478Z,13.00
2019-05-21T04:50:04.671Z,13.33
2019-05-21T04:52:31.874Z,14.40
2019-05-21T04:54:59.138Z,13.23
2019-05-21T04:57:26.406Z,17.90
2019-05-21T04:59:53.579Z,13.83
2019-05-21T05:02:20.788Z,14.53
2019-05-21T05:04:47.964Z,13.83
2019-05-21T05:07:27.722Z,21.40
2019-05-21T05:09:44.081Z,13.53
2019-05-21T05:12:11.283Z,12.67
2019-05-21T05:14:38.472Z,14.10
2019-05-21T05:17:05.643Z,11.73
2019-05-21T05:19:32.850Z,12.63
2019-05-21T05:22:00.114Z,12.03
2019-05-21T05:24:27.308Z,13.70
2019-05-21T05:26:54.557Z,12.27
2019-05-21T05:29:21.744Z,12.70
2019-05-21T05:31:48.930Z,13.40
2019-05-21T05:34:16.098Z,15.20
2019-05-21T05:36:43.296Z,12.23
2019-05-21T05:39:10.482Z,12.63
2019-05-21T05:41:37.759Z,10.27
2019-05-21T05:44:04.940Z,12.03
2019-05-21T05:46:32.107Z,14.80
2019-05-21T05:49:01.787Z,11.63
2019-05-21T05:51:29.188Z,10.23
2019-05-21T05:53:59.145Z,11.60
2019-05-21T05:56:27.679Z,11.17
2019-05-21T05:58:54.871Z,11.00
2019-05-21T06:01:22.715Z,9.43
2019-05-21T06:03:49.896Z,11.23
2019-05-21T06:06:17.159Z,9.03
2019-05-21T06:08:44.333Z,11.57
2019-05-21T06:11:11.557Z,9.47
2019-05-21T06:13:38.769Z,10.70
2019-05-21T06:16:05.937Z,9.33
2019-05-21T06:18:35.546Z,14.53
2019-05-21T06:21:02.010Z,7.93
2019-05-21T06:23:29.208Z,9.53
2019-05-21T06:25:56.363Z,11.40
2019-05-21T06:28:23.550Z,8.07
2019-05-21T06:30:50.727Z,10.37
2019-05-21T06:33:17.922Z,7.13
2019-05-21T06:35:46.250Z,8.93
2019-05-21T06:38:17.573Z,9.00
2019-05-21T06:40:42.325Z,9.70
2019-05-21T06:43:09.597Z,8.30
2019-05-21T06:45:36.802Z,8.03
2019-05-21T06:48:04.048Z,7.93
2019-05-21T06:50:31.255Z,9.03
2019-05-21T06:52:58.418Z,7.53
2019-05-21T06:55:25.595Z,8.73
2019-05-21T06:57:52.758Z,9.57
2019-05-21T07:00:20.812Z,8.97
2019-05-21T07:02:47.979Z,8.90
2019-05-21T07:05:15.188Z,7.90
2019-05-21T07:07:42.429Z,7.47
2019-05-21T07:10:09.595Z,18.27
2019-05-21T07:12:36.781Z,6.77
2019-05-21T07:15:05.496Z,8.13
2019-05-21T07:17:32.734Z,5.57
2019-05-21T07:19:59.902Z,8.27
2019-05-21T07:22:27.087Z,9.73
2019-05-21T07:24:54.267Z,5.67
2019-05-21T07:27:21.453Z,9.07
2019-05-21T07:29:48.626Z,7.17
2019-05-21T07:32:15.787Z,6.43
2019-05-21T07:34:42.991Z,6.63
2019-05-21T07:37:10.320Z,5.37
2019-05-21T07:39:37.525Z,5.57
2019-05-21T07:42:04.699Z,6.70
2019-05-21T07:44:31.866Z,6.97
2019-05-21T07:46:59.032Z,5.40
2019-05-21T07:49:26.211Z,4.67
2019-05-21T07:51:53.396Z,6.97
2019-05-21T07:54:20.574Z,4.60
2019-05-21T07:56:47.762Z,4.67
2019-05-21T07:59:14.927Z,5.60
2019-05-21T08:01:42.107Z,4.33
2019-05-21T08:04:09.275Z,4.67
2019-05-21T08:06:36.454Z,4.13
2019-05-21T08:09:13.196Z,4.63
2019-05-21T08:11:34.299Z,5.83
2019-05-21T08:14:01.543Z,4.93
2019-05-21T08:16:28.731Z,3.97
2019-05-21T08:18:55.959Z,4.07
2019-05-21T08:21:23.135Z,8.20
2019-05-21T08:23:50.371Z,2.93
2019-05-21T08:26:17.550Z,3.77
2019-05-21T08:28:44.724Z,3.13
2019-05-21T08:31:11.899Z,3.33
2019-05-21T08:33:39.065Z,4.90
2019-05-21T08:36:06.563Z,3.53
2019-05-21T08:38:33.719Z,3.83
2019-05-21T08:41:00.893Z,3.40
2019-05-21T08:43:28.075Z,5.73
2019-05-21T08:45:55.277Z,3.70
2019-05-21T08:48:22.462Z,2.80
2019-05-21T08:50:49.653Z,3.27
2019-05-21T08:53:16.878Z,3.07
2019-05-21T08:55:44.064Z,3.13
2019-05-21T08:58:11.249Z,4.77
2019-05-21T09:00:38.410Z,4.00
2019-05-21T09:03:05.587Z,3.57
2019-05-21T09:05:32.763Z,3.50
2019-05-21T09:07:59.922Z,2.73
2019-05-21T09:10:27.102Z,3.07
2019-05-21T09:12:54.265Z,4.73
2019-05-21T09:15:21.462Z,3.13
2019-05-21T09:17:48.687Z,3.13
2019-05-21T09:20:15.872Z,3.70
2019-05-21T09:22:43.088Z,2.30
2019-05-21T09:25:10.267Z,3.70
2019-05-21T09:27:37.466Z,3.52
2019-05-21T09:30:06.366Z,3.87
2019-05-21T09:32:33.604Z,4.03
2019-05-21T09:35:00.777Z,2.50
2019-05-21T09:37:27.967Z,3.47
2019-05-21T09:39:55.162Z,2.37
2019-05-21T09:42:22.343Z,4.33
2019-05-21T09:44:49.529Z,2.67
2019-05-21T09:47:16.743Z,5.27
2019-05-21T09:49:43.978Z,6.27
2019-05-21T09:52:11.144Z,3.40
2019-05-21T09:54:38.349Z,7.95
2019-05-21T09:57:07.215Z,3.23
2019-05-21T09:59:36.030Z,3.00
2019-05-21T10:02:10.832Z,2.90
2019-05-21T10:04:38.038Z,2.73
2019-05-21T10:07:05.249Z,3.62
2019-05-21T10:09:32.426Z,3.63
2019-05-21T10:11:59.619Z,2.83
2019-05-21T10:14:26.802Z,3.80
2019-05-21T10:16:54.007Z,4.57
2019-05-21T10:19:21.163Z,3.57
2019-05-21T10:21:48.354Z,3.33
2019-05-21T10:24:15.528Z,3.35
2019-05-21T10:26:42.707Z,2.67
2019-05-21T10:29:09.946Z,4.35
2019-05-21T10:31:37.111Z,3.20
2019-05-21T10:34:04.286Z,2.83
2019-05-21T10:36:31.466Z,2.60
2019-05-21T10:38:58.634Z,8.40
2019-05-21T10:41:25.833Z,3.95
2019-05-21T10:43:53.014Z,2.93
2019-05-21T10:46:20.192Z,3.12
2019-05-21T10:48:47.358Z,5.30
2019-05-21T10:51:14.557Z,5.33
2019-05-21T10:53:41.719Z,5.75
2019-05-21T10:56:08.906Z,4.60
2019-05-21T10:58:36.186Z,2.72
2019-05-21T11:01:14.852Z,3.85
2019-05-21T11:03:43.738Z,2.80
2019-05-21T11:06:11.003Z,2.70
2019-05-21T11:08:38.261Z,2.70
2019-05-21T11:11:05.935Z,3.67
2019-05-21T11:13:33.148Z,2.90
2019-05-21T11:16:00.409Z,2.37
2019-05-21T11:18:27.765Z,3.33
2019-05-21T11:20:54.996Z,4.37
2019-05-21T11:23:22.192Z,2.58
2019-05-21T11:25:49.430Z,3.20
2019-05-21T11:28:16.604Z,5.17
2019-05-21T11:30:43.790Z,3.92
2019-05-21T11:33:10.979Z,5.15
2019-05-21T11:35:38.150Z,4.83
2019-05-21T11:38:05.317Z,3.80
2019-05-21T11:40:32.534Z,2.42
2019-05-21T11:42:59.744Z,4.87
2019-05-21T11:45:32.157Z,2.50
2019-05-21T11:47:55.855Z,3.50
2019-05-21T11:50:23.067Z,4.35
2019-05-21T11:52:50.325Z,5.17
2019-05-21T11:55:17.491Z,2.75
2019-05-21T11:57:44.695Z,3.40
2019-05-21T12:00:11.947Z,2.65
2019-05-21T12:02:39.142Z,2.83
2019-05-21T12:05:06.973Z,3.05
2019-05-21T12:07:34.134Z,4.53
2019-05-21T12:10:01.318Z,2.45
2019-05-21T12:12:28.499Z,3.77
2019-05-21T12:14:55.682Z,2.87
2019-05-21T12:17:22.852Z,5.12
2019-05-21T12:19:50.042Z,7.15
2019-05-21T12:22:17.238Z,3.10
2019-05-21T12:24:44.488Z,4.12
2019-05-21T12:27:11.672Z,5.35
2019-05-21T12:29:38.868Z,3.05
2019-05-21T12:32:06.060Z,3.40
2019-05-21T12:34:33.234Z,3.40
2019-05-21T12:37:00.414Z,5.05
2019-05-21T12:39:27.621Z,3.90
2019-05-21T12:41:54.802Z,3.98
2019-05-21T12:44:21.967Z,2.58
2019-05-21T12:46:49.162Z,5.42
2019-05-21T12:49:16.336Z,3.42
2019-05-21T12:51:43.518Z,4.67
2019-05-21T12:54:10.772Z,4.37
2019-05-21T12:56:40.792Z,5.05
2019-05-21T12:59:06.855Z,2.80
2019-05-21T13:01:34.018Z,2.50
2019-05-21T13:04:01.199Z,6.03
2019-05-21T13:06:28.387Z,2.55
2019-05-21T13:08:55.583Z,3.80
2019-05-21T13:11:23.438Z,2.45
2019-05-21T13:13:50.634Z,5.35
2019-05-21T13:16:17.810Z,3.10
2019-05-21T13:18:45.015Z,5.37
2019-05-21T13:21:12.203Z,3.20
2019-05-21T13:23:39.463Z,3.55
2019-05-21T13:26:08.554Z,4.17
2019-05-21T13:28:35.554Z,2.60
2019-05-21T13:31:02.714Z,2.50
2019-05-21T13:33:29.919Z,3.00
2019-05-21T13:35:57.088Z,8.00
2019-05-21T13:38:24.290Z,3.47
2019-05-21T13:40:52.948Z,3.95
2019-05-21T13:43:21.404Z,3.70
2019-05-21T13:45:49.182Z,4.10
2019-05-21T13:48:16.372Z,4.15
2019-05-21T13:50:43.551Z,2.62
2019-05-21T13:53:10.894Z,2.50
2019-05-21T13:55:38.998Z,3.05
2019-05-21T13:58:06.453Z,4.00
2019-05-21T14:00:35.256Z,3.77
2019-05-21T14:03:03.312Z,2.67
2019-05-21T14:05:30.499Z,3.20
2019-05-21T14:07:57.671Z,2.83
2019-05-21T14:10:24.873Z,3.20
2019-05-21T14:12:52.038Z,6.83
2019-05-21T14:15:19.288Z,3.17
2019-05-21T14:17:46.459Z,4.23
2019-05-21T14:20:13.666Z,3.00
2019-05-21T14:22:40.826Z,4.07
2019-05-21T14:25:08.035Z,5.08
2019-05-21T14:27:44.305Z,3.30
2019-05-21T14:30:05.738Z,2.70
2019-05-21T14:32:32.930Z,7.70
2019-05-21T14:35:01.672Z,4.50
2019-05-21T14:37:29.023Z,6.92
2019-05-21T14:39:56.200Z,3.17
2019-05-21T14:42:23.383Z,3.37
2019-05-21T14:44:50.558Z,5.47
2019-05-21T14:47:17.740Z,2.53
2019-05-21T14:49:44.946Z,8.87
2019-05-21T14:52:12.177Z,5.00
2019-05-21T14:54:39.367Z,4.00
2019-05-21T14:57:08.170Z,5.33
2019-05-21T14:59:35.346Z,5.67
2019-05-21T15:02:02.522Z,5.07
2019-05-21T15:04:30.056Z,5.30
2019-05-21T15:06:57.647Z,5.77
2019-05-21T15:09:24.841Z,6.00
2019-05-21T15:11:52.028Z,7.17
2019-05-21T15:14:19.242Z,4.07
2019-05-21T15:16:46.485Z,5.03
2019-05-21T15:19:13.671Z,4.07
2019-05-21T15:21:42.480Z,5.67
2019-05-21T15:24:09.934Z,6.07
2019-05-21T15:26:38.220Z,4.23
2019-05-21T15:29:05.418Z,6.40
2019-05-21T15:31:32.586Z,6.10
2019-05-21T15:33:59.759Z,6.10
2019-05-21T15:36:26.949Z,7.40
2019-05-21T15:38:54.130Z,7.87
2019-05-21T15:41:21.325Z,6.87
2019-05-21T15:43:48.498Z,4.37
2019-05-21T15:46:15.756Z,4.53
2019-05-21T15:48:42.931Z,4.83
2019-05-21T15:51:10.117Z,4.63
2019-05-21T15:53:37.324Z,6.77
2019-05-21T15:56:04.585Z,4.80
2019-05-21T15:58:31.773Z,4.37
2019-05-21T16:00:58.955Z,3.67
2019-05-21T16:03:26.146Z,4.37
2019-05-21T16:05:53.397Z,4.03
2019-05-21T16:08:20.574Z,4.70
2019-05-21T16:10:47.762Z,3.90
2019-05-21T16:13:14.949Z,3.90
2019-05-21T16:15:42.191Z,5.77
2019-05-21T16:18:09.452Z,7.97
2019-05-21T16:20:36.629Z,2.47
2019-05-21T16:23:03.808Z,3.40
2019-05-21T16:25:30.976Z,3.57
2019-05-21T16:27:58.145Z,3.17
2019-05-21T16:30:25.341Z,4.27
2019-05-21T16:32:52.518Z,3.03
2019-05-21T16:35:19.687Z,4.17
2019-05-21T16:37:46.865Z,3.40
2019-05-21T16:40:14.828Z,5.37
2019-05-21T16:42:42.011Z,3.03
2019-05-21T16:45:09.247Z,5.17
2019-05-21T16:47:45.612Z,3.80
2019-05-21T16:50:06.410Z,3.50
2019-05-21T16:52:33.705Z,8.37
2019-05-21T16:55:00.918Z,4.90
2019-05-21T16:57:28.131Z,5.10
2019-05-21T16:59:55.360Z,6.47
2019-05-21T17:02:22.558Z,3.47
2019-05-21T17:04:49.735Z,4.17
2019-05-21T17:07:16.902Z,4.03
2019-05-21T17:09:44.091Z,4.37
2019-05-21T17:12:11.751Z,4.47
2019-05-21T17:14:39.009Z,7.37
2019-05-21T17:17:06.178Z,4.67
2019-05-21T17:19:33.369Z,2.80
2019-05-21T17:22:00.550Z,4.53
2019-05-21T17:24:27.725Z,3.13
2019-05-21T17:26:54.901Z,3.33
2019-05-21T17:29:22.098Z,8.57
2019-05-21T17:31:49.274Z,3.17
2019-05-21T17:34:16.439Z,4.10
2019-05-21T17:36:43.622Z,3.30
2019-05-21T17:39:10.800Z,4.40
2019-05-21T17:41:38.815Z,3.07
2019-05-21T17:44:05.985Z,3.47
2019-05-21T17:46:33.154Z,3.10
2019-05-21T17:49:00.339Z,3.33
2019-05-21T17:51:27.512Z,4.20
2019-05-21T17:53:54.715Z,3.47
2019-05-21T17:56:21.951Z,3.80
2019-05-21T17:58:49.138Z,3.60
2019-05-21T18:01:17.203Z,3.73
2019-05-21T18:03:44.440Z,3.97
2019-05-21T18:06:12.094Z,3.40
2019-05-21T18:08:40.146Z,5.00
2019-05-21T18:11:07.338Z,4.67
2019-05-21T18:13:34.575Z,4.27
2019-05-21T18:16:01.753Z,4.80
2019-05-21T18:18:28.917Z,3.70
2019-05-21T18:20:56.778Z,5.73
2019-05-21T18:23:24.218Z,5.23
2019-05-21T18:25:51.407Z,6.40
2019-05-21T18:28:18.577Z,4.63
2019-05-21T18:30:45.797Z,5.40
2019-05-21T18:33:13.060Z,3.60
2019-05-21T18:35:40.225Z,6.70
2019-05-21T18:38:07.411Z,5.87
2019-05-21T18:40:34.581Z,4.57
2019-05-21T18:43:01.769Z,5.17
2019-05-21T18:45:28.973Z,3.93
2019-05-21T18:47:56.153Z,4.63
2019-05-21T18:50:35.522Z,4.00
2019-05-21T18:52:52.311Z,4.43
2019-05-21T18:55:19.489Z,4.37
2019-05-21T18:57:46.726Z,7.20
2019-05-21T19:00:13.987Z,9.00
2019-05-21T19:02:41.570Z,6.20
2019-05-21T19:05:08.768Z,10.17
2019-05-21T19:07:35.934Z,6.00
2019-05-21T19:10:04.288Z,5.80
2019-05-21T19:12:38.122Z,6.63
2019-05-21T19:15:00.365Z,6.27
2019-05-21T19:17:35.215Z,6.53
2019-05-21T19:19:56.456Z,7.87
2019-05-21T19:22:27.691Z,9.20
2019-05-21T19:24:55.305Z,5.17
2019-05-21T19:27:22.486Z,8.33
2019-05-21T19:29:49.683Z,5.50
2019-05-21T19:32:16.861Z,13.63
2019-05-21T19:34:44.114Z,8.23
2019-05-21T19:37:11.297Z,7.13
2019-05-21T19:39:39.546Z,6.70
2019-05-21T19:42:06.726Z,8.83
2019-05-21T19:44:33.903Z,5.50
2019-05-21T19:47:01.086Z,8.90
2019-05-21T19:49:28.259Z,5.60
2019-05-21T19:51:55.453Z,7.63
2019-05-21T19:54:22.657Z,9.30
2019-05-21T19:56:49.833Z,6.00
2019-05-21T19:59:17.026Z,6.00
2019-05-21T20:01:44.698Z,8.30
2019-05-21T20:04:11.866Z,6.93
2019-05-21T20:06:39.073Z,6.43
2019-05-21T20:09:07.945Z,4.47
2019-05-21T20:11:36.323Z,7.63
2019-05-21T20:14:03.523Z,13.33
2019-05-21T20:16:32.211Z,10.90
2019-05-21T20:18:59.449Z,13.93
2019-05-21T20:21:27.898Z,9.27
2019-05-21T20:23:55.168Z,9.90
2019-05-21T20:26:24.047Z,6.93
2019-05-21T20:28:51.227Z,4.20
2019-05-21T20:31:18.691Z,11.30
2019-05-21T20:33:46.916Z,5.57
2019-05-21T20:36:14.168Z,5.90
2019-05-21T20:38:41.802Z,5.73
2019-05-21T20:41:08.996Z,7.10
2019-05-21T20:43:36.271Z,6.03
2019-05-21T20:46:04.117Z,5.87
2019-05-21T20:48:32.934Z,3.87
2019-05-21T20:51:00.594Z,5.27
2019-05-21T20:53:27.763Z,4.10
2019-05-21T20:55:54.949Z,4.97
2019-05-21T20:58:22.185Z,5.20
2019-05-21T21:00:53.625Z,3.07
2019-05-21T21:03:20.817Z,3.57
2019-05-21T21:05:47.983Z,3.50
2019-05-21T21:08:16.131Z,4.53
2019-05-21T21:10:43.578Z,5.23
2019-05-21T21:13:11.315Z,3.53
2019-05-21T21:15:38.541Z,2.43
2019-05-21T21:18:05.938Z,2.40
2019-05-21T21:20:33.132Z,3.63
2019-05-21T21:23:00.294Z,2.73
2019-05-21T21:25:27.489Z,2.70
2019-05-21T21:27:55.799Z,3.33
2019-05-21T21:30:22.975Z,3.70
2019-05-21T21:32:50.245Z,3.93
2019-05-21T21:35:17.434Z,3.50
2019-05-21T21:37:44.633Z,6.03
2019-05-21T21:40:13.433Z,3.63
2019-05-21T21:42:40.796Z,3.60
2019-05-21T21:45:08.736Z,3.67
2019-05-21T21:47:36.287Z,4.87
2019-05-21T21:50:05.405Z,7.70
2019-05-21T21:52:32.869Z,3.63
2019-05-21T21:55:00.406Z,4.60
2019-05-21T21:57:27.607Z,4.83
2019-05-21T21:59:55.170Z,4.10
2019-05-21T22:02:30.022Z,5.77
2019-05-21T22:04:57.206Z,5.77
2019-05-21T22:07:24.378Z,4.37
2019-05-21T22:09:51.617Z,5.97
2019-05-21T22:12:20.670Z,6.73
2019-05-21T22:14:52.068Z,7.50
2019-05-21T22:17:18.109Z,8.13
2019-05-21T22:19:45.524Z,7.10
2019-05-21T22:22:13.786Z,7.07
2019-05-21T22:24:40.977Z,8.07
2019-05-21T22:27:08.233Z,7.80
2019-05-21T22:29:36.192Z,9.63
2019-05-21T22:32:03.350Z,10.07
2019-05-21T22:34:31.126Z,13.60
2019-05-21T22:36:58.332Z,9.90
2019-05-21T22:39:27.226Z,12.40
2019-05-21T22:41:54.426Z,14.67
2019-05-21T22:44:21.601Z,15.57
2019-05-21T22:46:49.158Z,13.10
2019-05-21T22:49:16.394Z,11.70
2019-05-21T22:51:43.607Z,13.23
2019-05-21T22:54:10.771Z,13.20
2019-05-21T22:56:37.957Z,15.63
2019-05-21T22:59:05.160Z,18.17
2019-05-21T23:01:33.910Z,13.40
2019-05-21T23:04:01.112Z,17.27
2019-05-21T23:06:28.282Z,16.57
2019-05-21T23:08:55.554Z,14.83
2019-05-21T23:11:23.379Z,15.93
2019-05-21T23:13:50.606Z,22.43
2019-05-21T23:16:17.810Z,16.20
2019-05-21T23:18:45.139Z,14.00
2019-05-21T23:21:14.381Z,16.10
2019-05-21T23:23:41.675Z,14.33
2019-05-21T23:26:09.301Z,19.90
2019-05-21T23:28:37.722Z,21.97
2019-05-21T23:31:05.990Z,20.27
2019-05-21T23:33:33.177Z,18.83
2019-05-21T23:36:01.037Z,21.30
2019-05-21T23:38:28.427Z,21.27
2019-05-21T23:40:55.612Z,20.60
2019-05-21T23:43:23.376Z,22.80
2019-05-21T23:45:50.613Z,25.87
2019-05-21T23:48:18.490Z,24.97
2019-05-21T23:50:45.678Z,23.10
2019-05-21T23:53:12.862Z,26.40
2019-05-21T23:55:40.666Z,31.90
2019-05-21T23:58:07.894Z,27.77
